FDX1732 KIND-KIAH
Flight info
| Callsign | FDX1732 |
|---|---|
| Flight time | 1h 50m |
| Altitude | 36000 |
| Route | OOM5 PXV J131 LIT EDWAH Q33 SWEUP ZEEKK3 |
| Aircraft | MD11/H-SDE1E2E3FGHIJ2J3J4J5M1RWXY/LB1D1 |
Departure
| Time | 2025-09-09 09:34 |
|---|---|
| Airport | Indianapolis International Airport (KIND) |
Arrival
| Time | 2025-09-09 11:24 |
|---|---|
| Airport | George Bush Intercontinental Airport (KIAH) |
| Time | Latitude | Longitude | Altitude | Speed | Heading |
|---|---|---|---|---|---|
| 2025-09-09 08:58 | 39.71289 | -86.28257 | 793 ft | 0 kts | 135° |
| 2025-09-09 09:23 | 39.71299 | -86.28270 | 794 ft | 2 kts | 135° |
| 2025-09-09 09:24 | 39.71316 | -86.28313 | 794 ft | 2 kts | 86° |
| 2025-09-09 09:24 | 39.71307 | -86.28345 | 794 ft | 0 kts | 45° |
| 2025-09-09 09:25 | 39.71304 | -86.28348 | 794 ft | 0 kts | 44° |
| 2025-09-09 09:27 | 39.71314 | -86.28336 | 794 ft | 2 kts | 44° |
| 2025-09-09 09:28 | 39.71401 | -86.28271 | 794 ft | 7 kts | 344° |
| 2025-09-09 09:29 | 39.71495 | -86.28343 | 794 ft | 7 kts | 14° |
| 2025-09-09 09:29 | 39.71590 | -86.28221 | 792 ft | 12 kts | 62° |
| 2025-09-09 09:30 | 39.71694 | -86.28011 | 791 ft | 16 kts | 46° |
| 2025-09-09 09:30 | 39.71776 | -86.27907 | 792 ft | 17 kts | 44° |
| 2025-09-09 09:31 | 39.71885 | -86.27853 | 791 ft | 4 kts | 317° |
| 2025-09-09 09:31 | 39.71910 | -86.27885 | 792 ft | 5 kts | 317° |
| 2025-09-09 09:32 | 39.71957 | -86.27971 | 793 ft | 3 kts | 231° |
| 2025-09-09 09:32 | 39.71855 | -86.28108 | 794 ft | 51 kts | 225° |
| 2025-09-09 09:33 | 39.70748 | -86.29517 | 796 ft | 164 kts | 225° |
| 2025-09-09 09:33 | 39.69041 | -86.31786 | 1663 ft | 173 kts | 225° |
| 2025-09-09 09:33 | 39.68212 | -86.32927 | 2146 ft | 178 kts | 224° |
| 2025-09-09 09:34 | 39.66400 | -86.35342 | 2938 ft | 201 kts | 224° |
| 2025-09-09 09:35 | 39.63232 | -86.39394 | 4225 ft | 237 kts | 219° |
| 2025-09-09 09:35 | 39.60073 | -86.40900 | 5248 ft | 256 kts | 189° |
| 2025-09-09 09:35 | 39.58321 | -86.41245 | 5991 ft | 259 kts | 188° |
| 2025-09-09 09:36 | 39.50921 | -86.43884 | 8837 ft | 288 kts | 200° |
| 2025-09-09 09:37 | 39.47151 | -86.45786 | 10070 ft | 297 kts | 203° |
| 2025-09-09 09:37 | 39.45225 | -86.46857 | 10749 ft | 307 kts | 205° |
| 2025-09-09 09:38 | 39.41045 | -86.48831 | 11998 ft | 333 kts | 198° |
| 2025-09-09 09:38 | 39.36543 | -86.50806 | 13355 ft | 354 kts | 201° |
| 2025-09-09 09:39 | 39.31796 | -86.53069 | 14614 ft | 378 kts | 201° |
| 2025-09-09 09:39 | 39.26699 | -86.55467 | 15864 ft | 401 kts | 201° |
| 2025-09-09 09:40 | 39.18573 | -86.59321 | 17646 ft | 432 kts | 201° |
| 2025-09-09 09:40 | 39.15720 | -86.60668 | 18235 ft | 442 kts | 201° |
| 2025-09-09 09:41 | 39.07155 | -86.65559 | 19996 ft | 454 kts | 206° |
| 2025-09-09 09:41 | 39.04334 | -86.67291 | 20576 ft | 457 kts | 206° |
| 2025-09-09 09:42 | 38.98502 | -86.70767 | 21753 ft | 463 kts | 206° |
| 2025-09-09 09:42 | 38.92608 | -86.74246 | 22907 ft | 471 kts | 206° |
| 2025-09-09 09:43 | 38.86633 | -86.77799 | 24066 ft | 477 kts | 206° |
| 2025-09-09 09:45 | 38.61980 | -86.92458 | 28958 ft | 499 kts | 207° |
| 2025-09-09 09:46 | 38.42955 | -87.09835 | 33444 ft | 478 kts | 229° |
| 2025-09-09 09:49 | 38.22617 | -87.36766 | 36172 ft | 471 kts | 227° |
| 2025-09-09 09:50 | 38.06822 | -87.57681 | 36215 ft | 469 kts | 228° |
| 2025-09-09 09:53 | 37.86868 | -87.84828 | 36209 ft | 468 kts | 231° |
| 2025-09-09 09:54 | 37.71915 | -88.06488 | 36186 ft | 468 kts | 230° |
| 2025-09-09 09:57 | 37.52544 | -88.34114 | 36179 ft | 469 kts | 230° |
| 2025-09-09 09:59 | 37.35283 | -88.58592 | 36167 ft | 469 kts | 230° |
| 2025-09-09 10:01 | 37.15916 | -88.86154 | 36168 ft | 469 kts | 229° |
| 2025-09-09 10:03 | 37.00704 | -89.07458 | 36187 ft | 470 kts | 229° |
| 2025-09-09 10:05 | 36.81129 | -89.34634 | 36176 ft | 467 kts | 229° |
| 2025-09-09 10:07 | 36.65971 | -89.55740 | 36163 ft | 468 kts | 229° |
| 2025-09-09 10:09 | 36.48526 | -89.79614 | 36154 ft | 466 kts | 228° |
| 2025-09-09 10:11 | 36.31044 | -90.03480 | 36166 ft | 468 kts | 228° |
| 2025-09-09 10:13 | 36.13437 | -90.27085 | 36162 ft | 468 kts | 227° |
| 2025-09-09 10:15 | 35.95819 | -90.50613 | 36143 ft | 468 kts | 228° |
| 2025-09-09 10:17 | 35.78235 | -90.74151 | 36160 ft | 467 kts | 227° |
| 2025-09-09 10:18 | 35.62822 | -90.94584 | 36152 ft | 465 kts | 226° |
| 2025-09-09 10:21 | 35.42905 | -91.20573 | 36110 ft | 466 kts | 227° |
| 2025-09-09 10:23 | 35.25183 | -91.43774 | 36105 ft | 467 kts | 228° |
| 2025-09-09 10:25 | 35.07397 | -91.66935 | 36117 ft | 469 kts | 227° |
| 2025-09-09 10:27 | 34.89402 | -91.90018 | 36119 ft | 471 kts | 229° |
| 2025-09-09 10:29 | 34.71300 | -92.13191 | 36119 ft | 475 kts | 225° |
| 2025-09-09 10:31 | 34.45682 | -92.22159 | 36129 ft | 495 kts | 192° |
| 2025-09-09 10:33 | 34.18456 | -92.27358 | 36126 ft | 498 kts | 192° |
| 2025-09-09 10:35 | 33.91054 | -92.32440 | 36107 ft | 500 kts | 192° |
| 2025-09-09 10:37 | 33.63492 | -92.37548 | 36102 ft | 503 kts | 192° |
| 2025-09-09 10:38 | 33.39297 | -92.42021 | 36065 ft | 503 kts | 192° |
| 2025-09-09 10:41 | 33.08022 | -92.47730 | 36080 ft | 506 kts | 192° |
| 2025-09-09 10:42 | 32.83624 | -92.52179 | 36103 ft | 508 kts | 192° |
| 2025-09-09 10:45 | 32.52255 | -92.57865 | 36090 ft | 509 kts | 192° |
| 2025-09-09 10:46 | 32.27801 | -92.62252 | 36077 ft | 507 kts | 192° |
| 2025-09-09 10:49 | 31.96735 | -92.69313 | 36090 ft | 497 kts | 212° |
| 2025-09-09 10:50 | 31.80625 | -92.89281 | 36062 ft | 486 kts | 232° |
| 2025-09-09 10:53 | 31.60221 | -93.15485 | 36087 ft | 483 kts | 233° |
| 2025-09-09 10:54 | 31.44551 | -93.35669 | 34228 ft | 478 kts | 232° |
| 2025-09-09 10:57 | 31.23853 | -93.62086 | 29758 ft | 501 kts | 232° |
| 2025-09-09 10:58 | 31.07177 | -93.83189 | 26198 ft | 511 kts | 231° |
| 2025-09-09 11:00 | 30.92985 | -94.01172 | 23357 ft | 482 kts | 230° |
| 2025-09-09 11:00 | 30.88490 | -94.06777 | 22119 ft | 466 kts | 230° |
| 2025-09-09 11:01 | 30.84216 | -94.12152 | 20888 ft | 439 kts | 230° |
| 2025-09-09 11:01 | 30.82170 | -94.14719 | 20296 ft | 422 kts | 230° |
| 2025-09-09 11:02 | 30.78324 | -94.19527 | 19189 ft | 393 kts | 230° |
| 2025-09-09 11:02 | 30.74747 | -94.24036 | 18288 ft | 372 kts | 230° |
| 2025-09-09 11:02 | 30.72989 | -94.26231 | 17805 ft | 368 kts | 230° |
| 2025-09-09 11:03 | 30.69542 | -94.30503 | 16925 ft | 361 kts | 230° |
| 2025-09-09 11:04 | 30.64461 | -94.36842 | 15555 ft | 353 kts | 229° |
| 2025-09-09 11:04 | 30.61142 | -94.40971 | 14622 ft | 349 kts | 229° |
| 2025-09-09 11:05 | 30.57870 | -94.45061 | 13687 ft | 346 kts | 229° |
| 2025-09-09 11:05 | 30.54653 | -94.49043 | 13068 ft | 329 kts | 226° |
| 2025-09-09 11:06 | 30.51228 | -94.52387 | 12597 ft | 318 kts | 216° |
| 2025-09-09 11:06 | 30.49407 | -94.53800 | 12228 ft | 315 kts | 214° |
| 2025-09-09 11:06 | 30.45788 | -94.56522 | 11514 ft | 310 kts | 215° |
| 2025-09-09 11:07 | 30.42274 | -94.59293 | 10839 ft | 306 kts | 216° |
| 2025-09-09 11:08 | 30.35202 | -94.64365 | 9466 ft | 294 kts | 193° |
| 2025-09-09 11:08 | 30.33201 | -94.64625 | 9144 ft | 290 kts | 178° |
| 2025-09-09 11:09 | 30.29214 | -94.64097 | 8451 ft | 288 kts | 170° |
| 2025-09-09 11:09 | 30.25275 | -94.63459 | 7782 ft | 281 kts | 173° |
| 2025-09-09 11:10 | 30.21512 | -94.63032 | 7202 ft | 261 kts | 174° |
| 2025-09-09 11:10 | 30.17993 | -94.62681 | 6750 ft | 251 kts | 167° |
| 2025-09-09 11:11 | 30.14802 | -94.61330 | 6515 ft | 248 kts | 175° |
| 2025-09-09 11:11 | 30.11337 | -94.61582 | 5855 ft | 248 kts | 188° |
| 2025-09-09 11:12 | 30.06224 | -94.62262 | 4909 ft | 245 kts | 183° |
| 2025-09-09 11:12 | 30.02815 | -94.62473 | 4344 ft | 242 kts | 182° |
| 2025-09-09 11:13 | 30.01167 | -94.62695 | 4084 ft | 241 kts | 198° |
| 2025-09-09 11:13 | 29.98866 | -94.65227 | 4035 ft | 236 kts | 248° |
| 2025-09-09 11:14 | 29.97886 | -94.68665 | 3977 ft | 221 kts | 255° |
| 2025-09-09 11:14 | 29.97530 | -94.72290 | 3985 ft | 231 kts | 272° |
| 2025-09-09 11:15 | 29.97652 | -94.75999 | 3959 ft | 232 kts | 273° |
| 2025-09-09 11:15 | 29.97724 | -94.79694 | 3967 ft | 232 kts | 271° |
| 2025-09-09 11:16 | 29.97729 | -94.85267 | 3476 ft | 230 kts | 271° |
| 2025-09-09 11:16 | 29.97728 | -94.88946 | 3106 ft | 229 kts | 271° |
| 2025-09-09 11:17 | 29.97726 | -94.92629 | 2988 ft | 231 kts | 271° |
| 2025-09-09 11:17 | 29.97730 | -94.94466 | 2696 ft | 229 kts | 271° |
| 2025-09-09 11:18 | 29.97737 | -94.98137 | 2473 ft | 231 kts | 271° |
| 2025-09-09 11:18 | 29.97780 | -95.01829 | 2204 ft | 230 kts | 272° |
| 2025-09-09 11:19 | 29.97814 | -95.05505 | 1988 ft | 227 kts | 271° |
| 2025-09-09 11:19 | 29.97802 | -95.09180 | 2023 ft | 230 kts | 270° |
| 2025-09-09 11:20 | 29.97788 | -95.12855 | 2014 ft | 230 kts | 270° |
| 2025-09-09 11:20 | 29.97778 | -95.18228 | 2008 ft | 210 kts | 271° |
| 2025-09-09 11:21 | 29.97776 | -95.19862 | 1845 ft | 201 kts | 271° |
| 2025-09-09 11:21 | 29.97772 | -95.22955 | 1300 ft | 185 kts | 271° |
| 2025-09-09 11:22 | 29.97784 | -95.25823 | 811 ft | 172 kts | 270° |
| 2025-09-09 11:22 | 29.97777 | -95.28528 | 394 ft | 172 kts | 269° |
| 2025-09-09 11:22 | 29.97767 | -95.29905 | 168 ft | 169 kts | 271° |
| 2025-09-09 11:23 | 29.97760 | -95.32449 | 98 ft | 47 kts | 270° |
| 2025-09-09 11:24 | 29.97818 | -95.32881 | 98 ft | 20 kts | 297° |
| 2025-09-09 11:24 | 29.97871 | -95.33156 | 101 ft | 12 kts | 271° |
| 2025-09-09 11:25 | 29.97870 | -95.33260 | 101 ft | 14 kts | 269° |
| 2025-09-09 11:25 | 29.97994 | -95.33398 | 101 ft | 17 kts | 1° |
| 2025-09-09 11:26 | 29.98199 | -95.33402 | 102 ft | 10 kts | 336° |
| 2025-09-09 11:26 | 29.98231 | -95.33588 | 103 ft | 14 kts | 272° |
| 2025-09-09 11:27 | 29.98246 | -95.33850 | 105 ft | 17 kts | 271° |
| 2025-09-09 11:27 | 29.98291 | -95.34100 | 105 ft | 15 kts | 297° |
| 2025-09-09 11:28 | 29.98260 | -95.34531 | 104 ft | 21 kts | 269° |
| 2025-09-09 11:28 | 29.98262 | -95.34926 | 101 ft | 26 kts | 271° |
| 2025-09-09 11:29 | 29.98259 | -95.35042 | 101 ft | 10 kts | 257° |
| 2025-09-09 11:29 | 29.98142 | -95.35046 | 101 ft | 12 kts | 154° |
| 2025-09-09 11:30 | 29.97961 | -95.34940 | 101 ft | 16 kts | 152° |
| 2025-09-09 11:30 | 29.97756 | -95.34811 | 101 ft | 13 kts | 152° |
| 2025-09-09 11:31 | 29.97768 | -95.34459 | 101 ft | 7 kts | 74° |
| 2025-09-09 11:32 | 29.97833 | -95.34420 | 101 ft | 0 kts | 18° |